createdAt,value
2019-05-07T00:00:29.013Z,86.79
2019-05-07T00:01:28.991Z,87.10
2019-05-07T00:02:29.035Z,87.32
2019-05-07T00:03:29.029Z,87.53
2019-05-07T00:04:29.022Z,87.59
2019-05-07T00:05:28.994Z,87.77
2019-05-07T00:06:29.106Z,87.82
2019-05-07T00:07:29.099Z,87.96
2019-05-07T00:08:29.101Z,88.07
2019-05-07T00:09:29.055Z,88.17
2019-05-07T00:10:29.029Z,88.28
2019-05-07T00:11:29.049Z,88.44
2019-05-07T00:12:29.034Z,88.57
2019-05-07T00:13:29.102Z,88.62
2019-05-07T00:14:29.031Z,88.73
2019-05-07T00:15:29.104Z,88.89
2019-05-07T00:16:29.044Z,88.89
2019-05-07T00:17:29.040Z,88.92
2019-05-07T00:18:29.102Z,89.11
2019-05-07T00:19:29.104Z,89.19
2019-05-07T00:20:29.035Z,89.24
2019-05-07T00:21:29.111Z,89.16
2019-05-07T00:22:29.096Z,89.22
2019-05-07T00:23:29.142Z,89.35
2019-05-07T00:24:29.143Z,89.43
2019-05-07T00:25:29.031Z,89.59
2019-05-07T00:26:29.145Z,89.78
2019-05-07T00:27:29.054Z,89.91
2019-05-07T00:28:29.021Z,90.13
2019-05-07T00:29:29.086Z,90.26
2019-05-07T00:30:29.131Z,90.39
2019-05-07T00:31:29.112Z,90.53
2019-05-07T00:32:29.128Z,90.69
2019-05-07T00:33:29.079Z,90.85
2019-05-07T00:34:29.133Z,91.07
2019-05-07T00:35:29.078Z,91.30
2019-05-07T00:36:29.132Z,91.57
2019-05-07T00:37:29.076Z,91.71
2019-05-07T00:38:29.140Z,91.79
2019-05-07T00:39:29.065Z,91.92
2019-05-07T00:40:29.148Z,92.08
2019-05-07T00:41:29.094Z,92.35
2019-05-07T00:42:29.041Z,92.54
2019-05-07T00:43:29.099Z,92.76
2019-05-07T00:44:29.019Z,92.95
2019-05-07T00:45:29.105Z,93.24
2019-05-07T00:46:29.074Z,93.45
2019-05-07T00:47:29.121Z,93.51
2019-05-07T00:48:29.108Z,93.67
2019-05-07T00:49:29.017Z,93.85
2019-05-07T00:50:28.997Z,94.15
2019-05-07T00:51:29.031Z,94.40
2019-05-07T00:52:29.099Z,94.34
2019-05-07T00:53:29.092Z,94.45
2019-05-07T00:54:29.153Z,94.48
2019-05-07T00:55:29.085Z,94.59
2019-05-07T00:56:29.102Z,94.75
2019-05-07T00:57:29.103Z,94.93
2019-05-07T00:58:29.176Z,95.07
2019-05-07T00:59:29.150Z,94.91
2019-05-07T01:00:29.101Z,94.86
2019-05-07T01:01:29.149Z,94.91
2019-05-07T01:02:29.133Z,95.01
2019-05-07T01:03:29.140Z,95.20
2019-05-07T01:04:29.144Z,95.45
2019-05-07T01:05:29.144Z,95.47
2019-05-07T01:06:29.076Z,95.42
2019-05-07T01:07:29.072Z,95.45
2019-05-07T01:08:29.070Z,95.47
2019-05-07T01:09:29.148Z,95.53
2019-05-07T01:10:29.140Z,95.66
2019-05-07T01:11:29.111Z,95.83
2019-05-07T01:12:29.183Z,95.88
2019-05-07T01:13:29.167Z,95.88
2019-05-07T01:14:29.110Z,95.85
2019-05-07T01:15:32.126Z,95.85
2019-05-07T01:16:29.118Z,95.80
2019-05-07T01:17:29.111Z,95.83
2019-05-07T01:18:29.044Z,95.94
2019-05-07T01:19:29.173Z,95.96
2019-05-07T01:20:29.133Z,95.94
2019-05-07T01:21:29.169Z,95.88
2019-05-07T01:22:29.092Z,95.91
2019-05-07T01:23:29.149Z,95.96
2019-05-07T01:24:29.153Z,96.02
2019-05-07T01:25:29.095Z,96.04
2019-05-07T01:26:29.089Z,95.98
2019-05-07T01:27:29.187Z,95.96
2019-05-07T01:28:29.150Z,96.07
2019-05-07T01:29:29.088Z,96.04
2019-05-07T01:30:29.153Z,96.07
2019-05-07T01:31:29.162Z,96.13
2019-05-07T01:32:29.104Z,96.15
2019-05-07T01:33:29.090Z,96.15
2019-05-07T01:34:29.158Z,96.20
2019-05-07T01:35:29.066Z,96.28
2019-05-07T01:36:29.153Z,96.28
2019-05-07T01:37:29.152Z,96.26
2019-05-07T01:38:29.050Z,96.26
2019-05-07T01:39:29.158Z,96.39
2019-05-07T01:40:29.090Z,96.53
2019-05-07T01:41:29.067Z,96.69
2019-05-07T01:42:29.126Z,96.80
2019-05-07T01:43:29.075Z,96.91
2019-05-07T01:44:29.163Z,96.88
2019-05-07T01:45:43.282Z,96.93
2019-05-07T01:46:29.207Z,97.02
2019-05-07T01:47:29.126Z,97.04
2019-05-07T01:48:29.171Z,97.04
2019-05-07T01:49:29.147Z,97.02
2019-05-07T01:50:29.070Z,97.07
2019-05-07T01:51:29.207Z,97.07
2019-05-07T01:52:29.211Z,97.10
2019-05-07T01:53:29.141Z,97.10
2019-05-07T01:54:29.201Z,97.15
2019-05-07T01:55:29.112Z,97.07
2019-05-07T01:56:29.241Z,97.02
2019-05-07T01:57:29.081Z,96.99
2019-05-07T01:58:29.148Z,96.91
2019-05-07T01:59:29.219Z,96.88
2019-05-07T02:00:29.088Z,96.88
2019-05-07T02:01:29.073Z,96.93
2019-05-07T02:02:29.118Z,96.93
2019-05-07T02:03:29.201Z,96.93
2019-05-07T02:04:29.163Z,96.96
2019-05-07T02:05:29.184Z,97.02
2019-05-07T02:06:29.189Z,97.02
2019-05-07T02:07:29.147Z,97.04
2019-05-07T02:08:29.187Z,97.12
2019-05-07T02:09:29.072Z,97.12
2019-05-07T02:10:29.121Z,97.18
2019-05-07T02:11:29.149Z,97.26
2019-05-07T02:12:29.210Z,97.28
2019-05-07T02:13:29.152Z,97.36
2019-05-07T02:14:29.140Z,97.42
2019-05-07T02:15:29.094Z,97.42
2019-05-07T02:16:29.075Z,97.45
2019-05-07T02:17:29.185Z,97.42
2019-05-07T02:18:29.239Z,97.42
2019-05-07T02:19:29.132Z,97.47
2019-05-07T02:20:29.177Z,97.58
2019-05-07T02:21:29.129Z,97.61
2019-05-07T02:22:29.176Z,97.74
2019-05-07T02:23:29.232Z,97.83
2019-05-07T02:24:29.165Z,97.88
2019-05-07T02:25:29.254Z,97.96
2019-05-07T02:26:29.167Z,98.04
2019-05-07T02:27:29.216Z,98.15
2019-05-07T02:28:29.234Z,98.31
2019-05-07T02:29:29.225Z,98.40
2019-05-07T02:30:29.168Z,98.45
2019-05-07T02:31:29.105Z,98.61
2019-05-07T02:32:29.220Z,98.64
2019-05-07T02:33:29.158Z,98.59
2019-05-07T02:34:29.172Z,98.59
2019-05-07T02:35:29.162Z,98.48
2019-05-07T02:36:29.189Z,98.42
2019-05-07T02:37:37.708Z,98.34
2019-05-07T02:38:29.247Z,98.02
2019-05-07T02:39:29.225Z,97.72
2019-05-07T02:40:29.239Z,97.45
2019-05-07T02:41:29.159Z,97.07
2019-05-07T02:42:29.237Z,96.91
2019-05-07T02:43:29.163Z,96.72
2019-05-07T02:44:29.172Z,96.53
2019-05-07T02:45:29.173Z,96.42
2019-05-07T02:46:31.884Z,96.36
2019-05-07T02:47:29.182Z,96.28
2019-05-07T02:48:29.190Z,96.23
2019-05-07T02:49:29.126Z,96.09
2019-05-07T02:50:29.178Z,96.09
2019-05-07T02:51:29.252Z,96.04
2019-05-07T02:52:29.202Z,96.09
2019-05-07T02:53:29.208Z,96.13
2019-05-07T02:54:29.107Z,96.17
2019-05-07T02:55:29.116Z,96.20
2019-05-07T02:56:29.148Z,96.23
2019-05-07T02:57:29.209Z,96.28
2019-05-07T02:58:29.103Z,96.28
2019-05-07T02:59:29.171Z,96.31
2019-05-07T03:00:29.133Z,96.28
2019-05-07T03:01:29.212Z,96.28
2019-05-07T03:02:29.105Z,96.23
2019-05-07T03:03:29.102Z,96.17
2019-05-07T03:04:29.213Z,96.09
2019-05-07T03:05:29.177Z,96.15
2019-05-07T03:06:29.167Z,96.15
2019-05-07T03:07:29.127Z,96.17
2019-05-07T03:08:29.131Z,96.23
2019-05-07T03:09:29.111Z,96.28
2019-05-07T03:10:29.222Z,96.39
2019-05-07T03:11:29.223Z,96.42
2019-05-07T03:12:29.169Z,96.45
2019-05-07T03:13:29.161Z,96.50
2019-05-07T03:14:29.233Z,96.50
2019-05-07T03:15:29.167Z,96.58
2019-05-07T03:16:40.088Z,96.42
2019-05-07T03:17:29.161Z,96.34
2019-05-07T03:18:29.175Z,96.34
2019-05-07T03:19:29.163Z,96.42
2019-05-07T03:20:29.172Z,96.50
2019-05-07T03:21:29.240Z,96.53
2019-05-07T03:22:29.272Z,96.61
2019-05-07T03:23:29.172Z,96.64
2019-05-07T03:24:29.238Z,96.66
2019-05-07T03:25:29.170Z,96.64
2019-05-07T03:26:29.270Z,96.66
2019-05-07T03:27:29.247Z,96.72
2019-05-07T03:28:29.186Z,96.80
2019-05-07T03:29:29.188Z,96.93
2019-05-07T03:30:29.268Z,97.07
2019-05-07T03:31:29.245Z,97.10
2019-05-07T03:32:29.259Z,97.26
2019-05-07T03:33:29.250Z,97.39
2019-05-07T03:34:29.326Z,97.50
2019-05-07T03:35:29.419Z,97.61
2019-05-07T03:36:29.314Z,97.72
2019-05-07T03:37:33.186Z,97.83
2019-05-07T03:38:29.177Z,97.96
2019-05-07T03:39:29.249Z,98.04
2019-05-07T03:40:29.180Z,98.07
2019-05-07T03:41:29.255Z,98.12
2019-05-07T03:42:29.289Z,98.21
2019-05-07T03:43:29.279Z,98.31
2019-05-07T03:44:29.271Z,98.42
2019-05-07T03:45:29.277Z,98.45
2019-05-07T03:46:29.193Z,98.48
2019-05-07T03:47:29.227Z,98.42
2019-05-07T03:48:29.216Z,98.45
2019-05-07T03:49:29.214Z,98.42
2019-05-07T03:50:29.281Z,98.42
2019-05-07T03:51:29.287Z,98.42
2019-05-07T03:52:29.167Z,98.40
2019-05-07T03:53:29.123Z,98.40
2019-05-07T03:54:29.116Z,98.45
2019-05-07T03:55:29.192Z,98.53
2019-05-07T03:56:29.169Z,98.66
2019-05-07T03:57:29.125Z,98.77
2019-05-07T03:58:29.160Z,98.83
2019-05-07T03:59:29.144Z,98.91
2019-05-07T04:00:29.215Z,98.96
2019-05-07T04:01:29.213Z,98.99
2019-05-07T04:02:29.311Z,98.94
2019-05-07T04:03:29.292Z,98.94
2019-05-07T04:04:29.225Z,98.94
2019-05-07T04:05:29.228Z,98.94
2019-05-07T04:06:29.233Z,98.99
2019-05-07T04:07:29.235Z,99.02
2019-05-07T04:08:29.289Z,99.07
2019-05-07T04:09:29.270Z,99.13
2019-05-07T04:10:29.334Z,99.18
2019-05-07T04:11:29.231Z,99.21
2019-05-07T04:12:29.212Z,99.23
2019-05-07T04:13:29.259Z,99.21
2019-05-07T04:14:29.139Z,99.37
2019-05-07T04:15:29.254Z,99.53
2019-05-07T04:16:29.179Z,99.59
2019-05-07T04:17:29.180Z,99.64
2019-05-07T04:18:29.209Z,99.75
2019-05-07T04:19:29.239Z,99.86
2019-05-07T04:20:29.218Z,99.92
2019-05-07T04:21:29.152Z,99.99
2019-05-07T04:22:29.316Z,99.99
2019-05-07T04:23:29.239Z,99.99
2019-05-07T04:24:29.171Z,99.99
2019-05-07T04:25:29.281Z,99.99
2019-05-07T04:26:29.286Z,99.99
2019-05-07T04:27:29.284Z,99.99
2019-05-07T04:28:29.226Z,99.99
2019-05-07T04:29:29.295Z,99.99
2019-05-07T04:30:29.215Z,99.99
2019-05-07T04:31:29.291Z,99.99
2019-05-07T04:32:29.222Z,99.99
2019-05-07T04:33:29.295Z,99.99
2019-05-07T04:34:29.220Z,99.99
2019-05-07T04:35:29.312Z,99.99
2019-05-07T04:36:29.217Z,99.99
2019-05-07T04:37:29.374Z,99.99
2019-05-07T04:38:29.305Z,99.99
2019-05-07T04:39:29.224Z,99.99
2019-05-07T04:40:29.305Z,99.99
2019-05-07T04:41:29.218Z,99.99
2019-05-07T04:42:29.313Z,99.99
2019-05-07T04:43:29.278Z,99.99
2019-05-07T04:44:29.243Z,99.99
2019-05-07T04:45:29.274Z,99.99
2019-05-07T04:46:29.311Z,99.99
2019-05-07T04:47:38.743Z,99.99
2019-05-07T04:48:29.262Z,99.99
2019-05-07T04:49:29.274Z,99.99
2019-05-07T04:50:41.987Z,99.99
2019-05-07T04:51:29.244Z,99.99
2019-05-07T04:52:29.321Z,99.99
2019-05-07T04:53:29.326Z,99.99
2019-05-07T04:54:29.281Z,99.99
2019-05-07T04:55:29.332Z,99.99
2019-05-07T04:56:29.319Z,99.99
2019-05-07T04:57:29.248Z,99.99
2019-05-07T04:58:29.208Z,99.99
2019-05-07T04:59:29.262Z,99.99
2019-05-07T05:00:29.326Z,99.99
2019-05-07T05:01:29.251Z,99.72
2019-05-07T05:02:29.218Z,99.45
2019-05-07T05:03:29.253Z,99.04
2019-05-07T05:04:31.573Z,98.72
2019-05-07T05:05:29.309Z,98.37
2019-05-07T05:06:29.217Z,98.04
2019-05-07T05:07:29.313Z,97.69
2019-05-07T05:08:29.314Z,97.21
2019-05-07T05:09:29.222Z,96.72
2019-05-07T05:10:29.331Z,95.98
2019-05-07T05:11:29.285Z,95.26
2019-05-07T05:12:29.209Z,94.96
2019-05-07T05:13:29.261Z,94.72
2019-05-07T05:14:29.337Z,94.15
2019-05-07T05:15:29.272Z,92.78
2019-05-07T05:16:29.240Z,91.97
2019-05-07T05:17:29.332Z,91.52
2019-05-07T05:18:29.334Z,91.33
2019-05-07T05:19:29.262Z,90.98
2019-05-07T05:20:29.346Z,90.61
2019-05-07T05:21:29.267Z,90.58
2019-05-07T05:22:29.262Z,90.20
2019-05-07T05:23:29.331Z,90.02
2019-05-07T05:24:29.265Z,89.75
2019-05-07T05:25:29.263Z,89.64
2019-05-07T05:26:29.340Z,89.83
2019-05-07T05:27:30.635Z,89.67
2019-05-07T05:28:29.268Z,89.59
2019-05-07T05:29:29.340Z,89.54
2019-05-07T05:30:29.340Z,89.24
2019-05-07T05:31:29.275Z,89.06
2019-05-07T05:32:29.350Z,89.08
2019-05-07T05:33:29.272Z,89.16
2019-05-07T05:34:29.274Z,88.87
2019-05-07T05:35:29.340Z,89.06
2019-05-07T05:36:29.334Z,89.14
2019-05-07T05:37:29.272Z,88.87
2019-05-07T05:38:29.349Z,88.54
2019-05-07T05:39:29.349Z,88.46
2019-05-07T05:40:29.278Z,88.50
2019-05-07T05:42:29.355Z,87.43
2019-05-07T05:43:31.783Z,87.05
2019-05-07T05:44:29.357Z,86.94
2019-05-07T05:45:29.289Z,86.68
2019-05-07T05:46:29.411Z,86.52
2019-05-07T05:47:29.355Z,86.54
2019-05-07T05:48:29.284Z,86.79
2019-05-07T05:49:29.360Z,86.79
2019-05-07T05:50:29.381Z,86.33
2019-05-07T05:51:29.255Z,85.91
2019-05-07T05:52:29.358Z,85.30
2019-05-07T05:53:29.366Z,83.54
2019-05-07T05:54:29.291Z,82.96
2019-05-07T05:55:29.287Z,83.09
2019-05-07T05:56:29.360Z,82.56
2019-05-07T05:57:29.295Z,82.03
2019-05-07T05:58:29.296Z,81.68
2019-05-07T05:59:45.000Z,81.05
2019-05-07T06:00:29.462Z,80.68
2019-05-07T06:01:29.292Z,79.79
2019-05-07T06:02:29.353Z,78.97
2019-05-07T06:03:29.275Z,78.47
2019-05-07T06:04:29.356Z,78.12
2019-05-07T06:05:29.281Z,77.44
2019-05-07T06:06:29.357Z,76.89
2019-05-07T06:07:29.293Z,77.17
2019-05-07T06:08:29.281Z,77.33
2019-05-07T06:09:29.361Z,76.86
2019-05-07T06:10:29.291Z,76.57
2019-05-07T06:11:29.284Z,76.02
2019-05-07T06:12:29.288Z,75.44
2019-05-07T06:13:29.371Z,74.94
2019-05-07T06:14:29.313Z,73.35
2019-05-07T06:15:29.383Z,72.14
2019-05-07T06:16:29.301Z,70.87
2019-05-07T06:17:29.302Z,70.58
2019-05-07T06:18:29.375Z,71.05
2019-05-07T06:19:29.378Z,70.17
2019-05-07T06:20:29.319Z,70.14
2019-05-07T06:21:29.388Z,69.38
2019-05-07T06:22:29.308Z,68.97
2019-05-07T06:23:29.242Z,68.94
2019-05-07T06:24:29.238Z,68.63
2019-05-07T06:25:29.313Z,68.97
2019-05-07T06:26:29.351Z,68.43
2019-05-07T06:27:29.332Z,68.97
2019-05-07T06:28:29.347Z,70.48
2019-05-07T06:29:29.329Z,70.74
2019-05-07T06:30:29.281Z,70.71
2019-05-07T06:31:29.261Z,69.72
2019-05-07T06:32:29.243Z,72.04
2019-05-07T06:33:29.343Z,70.87
2019-05-07T06:34:29.337Z,71.13
2019-05-07T06:35:29.308Z,68.53
2019-05-07T06:36:29.243Z,68.63
2019-05-07T06:37:29.305Z,69.59
2019-05-07T06:38:29.284Z,71.26
2019-05-07T06:39:29.367Z,71.03
2019-05-07T06:40:31.629Z,68.08
2019-05-07T06:41:29.381Z,68.32
2019-05-07T06:42:29.310Z,69.46
2019-05-07T06:43:29.208Z,70.35
2019-05-07T06:44:29.215Z,70.87
2019-05-07T06:45:29.254Z,71.34
2019-05-07T06:46:29.266Z,72.12
2019-05-07T06:47:29.320Z,73.08
2019-05-07T06:48:39.187Z,73.42
2019-05-07T06:49:29.277Z,72.43
2019-05-07T06:50:29.311Z,71.94
2019-05-07T06:51:29.340Z,71.86
2019-05-07T06:52:29.304Z,71.23
2019-05-07T06:53:29.387Z,72.28
2019-05-07T06:54:29.381Z,72.07
2019-05-07T06:55:29.279Z,71.13
2019-05-07T06:56:29.344Z,71.73
2019-05-07T06:57:29.329Z,71.31
2019-05-07T06:58:29.360Z,72.01
2019-05-07T06:59:32.566Z,72.12
2019-05-07T07:00:29.267Z,72.56
2019-05-07T07:01:29.288Z,70.53
2019-05-07T07:02:29.272Z,71.21
2019-05-07T07:03:29.335Z,71.54
2019-05-07T07:04:29.412Z,71.36
2019-05-07T07:05:29.411Z,71.21
2019-05-07T07:06:29.415Z,72.01
2019-05-07T07:07:34.038Z,71.34
2019-05-07T07:08:29.410Z,72.33
2019-05-07T07:09:29.413Z,71.42
2019-05-07T07:10:29.410Z,71.23
2019-05-07T07:11:31.794Z,72.30
2019-05-07T07:12:29.419Z,71.70
2019-05-07T07:13:29.347Z,72.33
2019-05-07T07:14:29.414Z,71.86
2019-05-07T07:15:29.418Z,72.12
2019-05-07T07:16:29.411Z,71.99
2019-05-07T07:17:29.421Z,72.14
2019-05-07T07:18:29.421Z,72.59
2019-05-07T07:19:29.418Z,75.10
2019-05-07T07:20:29.418Z,74.36
2019-05-07T07:21:29.424Z,74.47
2019-05-07T07:22:31.690Z,75.89
2019-05-07T07:23:29.432Z,75.34
2019-05-07T07:24:29.420Z,72.95
2019-05-07T07:25:29.421Z,72.67
2019-05-07T07:26:29.359Z,72.14
2019-05-07T07:27:29.423Z,72.41
2019-05-07T07:28:29.367Z,73.01
2019-05-07T07:29:29.362Z,72.77
2019-05-07T07:30:29.427Z,73.24
2019-05-07T07:31:31.700Z,73.85
2019-05-07T07:32:31.600Z,73.95
2019-05-07T07:33:29.431Z,73.69
2019-05-07T07:34:29.376Z,73.45
2019-05-07T07:35:29.440Z,73.74
2019-05-07T07:36:29.374Z,72.98
2019-05-07T07:37:29.438Z,72.75
2019-05-07T07:38:29.432Z,74.13
2019-05-07T07:39:29.394Z,75.10
2019-05-07T07:40:29.368Z,75.07
2019-05-07T07:41:29.439Z,73.55
2019-05-07T07:42:29.394Z,72.46
2019-05-07T07:43:29.435Z,72.83
2019-05-07T07:44:29.440Z,73.55
2019-05-07T07:45:29.378Z,72.59
2019-05-07T07:46:29.444Z,72.09
2019-05-07T07:47:29.374Z,73.58
2019-05-07T07:48:29.376Z,72.64
2019-05-07T07:49:29.454Z,72.33
2019-05-07T07:50:29.447Z,73.14
2019-05-07T07:51:40.555Z,74.44
2019-05-07T07:52:29.438Z,74.63
2019-05-07T07:53:32.304Z,74.81
2019-05-07T07:54:29.423Z,74.97
2019-05-07T07:55:29.370Z,74.40
2019-05-07T07:56:29.323Z,74.24
2019-05-07T07:57:29.429Z,75.60
2019-05-07T07:58:31.557Z,75.81
2019-05-07T07:59:29.405Z,76.28
2019-05-07T08:00:30.129Z,76.89
2019-05-07T08:01:29.395Z,77.31
2019-05-07T08:02:29.438Z,77.23
2019-05-07T08:03:29.384Z,77.91
2019-05-07T08:04:29.441Z,75.10
2019-05-07T08:05:29.409Z,74.50
2019-05-07T08:06:29.458Z,72.95
2019-05-07T08:07:29.340Z,72.14
2019-05-07T08:08:29.380Z,71.96
2019-05-07T08:09:29.430Z,72.14
2019-05-07T08:10:29.355Z,72.28
2019-05-07T08:11:29.435Z,71.28
2019-05-07T08:12:29.326Z,71.36
2019-05-07T08:13:29.464Z,70.64
2019-05-07T08:14:29.394Z,70.68
2019-05-07T08:15:29.390Z,68.45
2019-05-07T08:16:29.463Z,67.25
2019-05-07T08:17:29.390Z,67.64
2019-05-07T08:18:29.560Z,68.27
2019-05-07T08:19:29.397Z,66.69
2019-05-07T08:20:29.466Z,66.84
2019-05-07T08:21:29.482Z,66.92
2019-05-07T08:22:29.391Z,66.40
2019-05-07T08:23:31.810Z,66.79
2019-05-07T08:24:29.397Z,67.20
2019-05-07T08:25:29.470Z,68.19
2019-05-07T08:26:29.474Z,68.97
2019-05-07T08:27:29.458Z,67.96
2019-05-07T08:28:31.777Z,66.79
2019-05-07T08:29:29.469Z,69.80
2019-05-07T08:30:29.491Z,68.97
2019-05-07T08:31:29.474Z,66.81
2019-05-07T08:32:29.480Z,65.68
2019-05-07T08:33:29.474Z,66.89
2019-05-07T08:34:29.473Z,69.30
2019-05-07T08:35:29.491Z,66.61
2019-05-07T08:36:29.364Z,64.29
2019-05-07T08:37:29.473Z,64.00
2019-05-07T08:38:30.027Z,65.55
2019-05-07T08:39:29.420Z,64.85
2019-05-07T08:40:29.478Z,65.26
2019-05-07T08:41:31.765Z,64.62
2019-05-07T08:42:29.484Z,64.26
2019-05-07T08:43:29.429Z,63.69
2019-05-07T08:44:29.481Z,64.98
2019-05-07T08:45:29.613Z,63.56
2019-05-07T08:46:29.644Z,65.53
2019-05-07T08:47:29.485Z,66.35
2019-05-07T08:48:29.496Z,64.34
2019-05-07T08:49:36.841Z,62.20
2019-05-07T08:50:29.487Z,62.18
2019-05-07T08:51:29.382Z,64.13
2019-05-07T08:52:29.489Z,64.00
2019-05-07T08:53:29.420Z,65.39
2019-05-07T08:54:29.416Z,62.97
2019-05-07T08:55:29.479Z,63.90
2019-05-07T08:56:29.380Z,62.99
2019-05-07T08:57:31.709Z,64.49
2019-05-07T08:58:31.604Z,63.20
2019-05-07T08:59:31.734Z,64.67
2019-05-07T09:00:29.482Z,65.53
2019-05-07T09:01:29.376Z,65.50
2019-05-07T09:02:29.395Z,67.33
2019-05-07T09:03:29.492Z,66.95
2019-05-07T09:04:29.501Z,67.88
2019-05-07T09:05:29.386Z,68.60
2019-05-07T09:06:29.431Z,69.67
2019-05-07T09:07:29.497Z,70.60
2019-05-07T09:08:29.495Z,70.87
2019-05-07T09:09:29.500Z,71.89
2019-05-07T09:10:29.507Z,72.56
2019-05-07T09:11:29.498Z,73.11
2019-05-07T09:12:31.705Z,72.98
2019-05-07T09:13:29.532Z,72.88
2019-05-07T09:14:31.519Z,71.91
2019-05-07T09:15:29.443Z,72.22
2019-05-07T09:16:31.822Z,71.99
2019-05-07T09:17:29.441Z,72.09
2019-05-07T09:18:29.439Z,70.66
2019-05-07T09:19:29.513Z,70.76
2019-05-07T09:20:29.438Z,70.79
2019-05-07T09:21:29.500Z,69.46
2019-05-07T09:22:29.438Z,67.00
2019-05-07T09:23:31.700Z,67.13
2019-05-07T09:24:29.498Z,65.26
2019-05-07T09:25:29.496Z,63.98
2019-05-07T09:26:29.431Z,64.18
2019-05-07T09:27:29.433Z,62.69
2019-05-07T09:28:29.385Z,62.99
2019-05-07T09:29:29.426Z,62.74
2019-05-07T09:30:29.430Z,62.38
2019-05-07T09:31:29.431Z,63.13
2019-05-07T09:32:29.508Z,63.72
2019-05-07T09:33:29.442Z,63.90
2019-05-07T09:34:29.453Z,65.32
2019-05-07T09:35:29.456Z,65.70
2019-05-07T09:36:29.520Z,68.22
2019-05-07T09:37:29.533Z,70.06
2019-05-07T09:38:29.528Z,69.41
2019-05-07T09:39:29.520Z,69.98
2019-05-07T09:40:29.484Z,70.82
2019-05-07T09:41:29.523Z,71.86
2019-05-07T09:42:29.546Z,71.52
2019-05-07T09:43:29.439Z,72.64
2019-05-07T09:44:29.512Z,72.14
2019-05-07T09:45:29.441Z,73.01
2019-05-07T09:46:29.517Z,72.53
2019-05-07T09:47:29.516Z,72.12
2019-05-07T09:48:29.453Z,71.70
2019-05-07T09:49:29.446Z,71.23
2019-05-07T09:50:29.458Z,71.99
2019-05-07T09:51:29.517Z,71.89
2019-05-07T09:52:29.433Z,72.56
2019-05-07T09:53:29.525Z,73.06
2019-05-07T09:54:29.476Z,71.94
2019-05-07T09:55:29.449Z,72.53
2019-05-07T09:56:29.445Z,73.24
2019-05-07T09:57:31.551Z,73.24
2019-05-07T09:58:36.614Z,71.36
2019-05-07T09:59:29.456Z,71.83
2019-05-07T10:00:29.448Z,72.04
2019-05-07T10:01:31.429Z,70.71
2019-05-07T10:02:29.546Z,70.24
2019-05-07T10:03:29.471Z,72.07
2019-05-07T10:04:29.471Z,71.34
2019-05-07T10:05:29.542Z,72.90
2019-05-07T10:06:29.473Z,73.97
2019-05-07T10:07:29.565Z,74.34
2019-05-07T10:08:31.697Z,73.82
2019-05-07T10:09:29.483Z,73.93
2019-05-07T10:10:29.476Z,74.79
2019-05-07T10:11:29.476Z,75.89
2019-05-07T10:12:29.479Z,75.23
2019-05-07T10:13:29.544Z,74.11
2019-05-07T10:14:29.542Z,73.87
2019-05-07T10:15:29.477Z,73.03
2019-05-07T10:16:29.545Z,69.38
2019-05-07T10:17:29.479Z,68.32
2019-05-07T10:18:29.482Z,68.55
2019-05-07T10:19:29.487Z,67.57
2019-05-07T10:20:29.573Z,68.50
2019-05-07T10:21:29.478Z,66.66
2019-05-07T10:22:31.979Z,66.43
2019-05-07T10:23:29.482Z,64.80
2019-05-07T10:24:29.442Z,67.36
2019-05-07T10:25:29.444Z,66.48
2019-05-07T10:26:29.429Z,66.09
2019-05-07T10:27:29.447Z,64.10
2019-05-07T10:28:29.540Z,63.64
2019-05-07T10:29:29.544Z,61.89
2019-05-07T10:30:29.519Z,62.10
2019-05-07T10:31:31.868Z,62.63
2019-05-07T10:32:29.450Z,62.99
2019-05-07T10:33:29.471Z,61.22
2019-05-07T10:34:29.550Z,60.99
2019-05-07T10:35:31.663Z,59.32
2019-05-07T10:36:29.554Z,60.09
2019-05-07T10:37:31.663Z,60.97
2019-05-07T10:38:29.561Z,61.86
2019-05-07T10:39:29.531Z,61.50
2019-05-07T10:40:29.565Z,60.63
2019-05-07T10:41:31.724Z,62.12
2019-05-07T10:42:29.496Z,61.84
2019-05-07T10:43:29.571Z,61.84
2019-05-07T10:44:29.469Z,61.04
2019-05-07T10:46:29.516Z,56.18
2019-05-07T10:47:29.558Z,56.82
2019-05-07T10:48:29.566Z,56.93
2019-05-07T10:49:31.672Z,55.27
2019-05-07T10:50:38.026Z,56.44
2019-05-07T10:51:29.474Z,56.69
2019-05-07T10:52:31.439Z,56.44
2019-05-07T10:53:29.494Z,54.81
2019-05-07T10:54:29.577Z,58.68
2019-05-07T10:55:29.506Z,58.07
2019-05-07T10:56:29.509Z,55.70
2019-05-07T10:57:29.579Z,56.74
2019-05-07T10:58:29.518Z,55.80
2019-05-07T10:59:29.577Z,52.02
2019-05-07T11:00:29.511Z,53.11
2019-05-07T11:01:29.507Z,54.45
2019-05-07T11:02:29.582Z,53.90
2019-05-07T11:03:29.583Z,53.21
2019-05-07T11:04:40.106Z,51.06
2019-05-07T11:05:29.519Z,51.79
2019-05-07T11:06:29.516Z,52.65
2019-05-07T11:07:29.584Z,52.85
2019-05-07T11:08:29.565Z,54.04
2019-05-07T11:09:29.516Z,55.60
2019-05-07T11:10:29.586Z,58.23
2019-05-07T11:11:31.762Z,57.36
2019-05-07T11:12:31.805Z,55.75
2019-05-07T11:13:29.522Z,55.19
2019-05-07T11:14:29.469Z,55.42
2019-05-07T11:15:29.456Z,56.97
2019-05-07T11:16:29.451Z,54.58
2019-05-07T11:17:29.535Z,53.72
2019-05-07T11:18:29.510Z,55.65
2019-05-07T11:19:29.474Z,54.78
2019-05-07T11:20:30.019Z,57.48
2019-05-07T11:21:29.546Z,55.91
2019-05-07T11:22:29.456Z,56.49
2019-05-07T11:23:29.509Z,58.89
2019-05-07T11:24:29.598Z,57.71
2019-05-07T11:25:29.603Z,56.80
2019-05-07T11:26:29.606Z,58.92
2019-05-07T11:27:29.597Z,57.38
2019-05-07T11:28:29.535Z,58.17
2019-05-07T11:29:29.605Z,56.95
2019-05-07T11:30:29.608Z,57.48
2019-05-07T11:31:29.552Z,53.49
2019-05-07T11:32:29.604Z,54.33
2019-05-07T11:33:29.602Z,53.11
2019-05-07T11:34:29.642Z,55.75
2019-05-07T11:35:31.701Z,51.33
2019-05-07T11:36:29.533Z,52.40
2019-05-07T11:37:29.577Z,49.72
2019-05-07T11:38:29.607Z,50.22
2019-05-07T11:39:29.617Z,50.73
2019-05-07T11:40:32.235Z,51.41
2019-05-07T11:41:29.541Z,51.89
2019-05-07T11:42:29.618Z,51.06
2019-05-07T11:43:29.611Z,52.40
2019-05-07T11:44:29.564Z,53.59
2019-05-07T11:45:29.534Z,52.98
2019-05-07T11:46:29.602Z,53.79
2019-05-07T11:47:31.726Z,55.65
2019-05-07T11:48:29.542Z,51.79
2019-05-07T11:49:29.538Z,51.37
2019-05-07T11:50:29.516Z,53.82
2019-05-07T11:51:29.530Z,53.03
2019-05-07T11:52:32.321Z,53.82
2019-05-07T11:53:29.507Z,52.85
2019-05-07T11:54:31.679Z,55.50
2019-05-07T11:55:29.575Z,54.17
2019-05-07T11:56:29.552Z,53.26
2019-05-07T11:57:29.535Z,53.69
2019-05-07T11:58:29.553Z,55.02
2019-05-07T11:59:29.480Z,54.78
2019-05-07T12:00:29.525Z,54.10
2019-05-07T12:01:43.049Z,55.67
2019-05-07T12:02:31.917Z,54.58
2019-05-07T12:03:29.503Z,57.10
2019-05-07T12:04:31.872Z,53.39
2019-05-07T12:05:29.618Z,51.46
2019-05-07T12:06:29.543Z,54.89
2019-05-07T12:07:29.619Z,55.32
2019-05-07T12:08:39.363Z,58.46
2019-05-07T12:09:29.553Z,51.54
2019-05-07T12:10:29.620Z,51.99
2019-05-07T12:11:29.544Z,52.50
2019-05-07T12:12:29.618Z,56.11
2019-05-07T12:13:29.624Z,55.83
2019-05-07T12:14:32.575Z,56.72
2019-05-07T12:15:29.563Z,56.39
2019-05-07T12:16:31.837Z,56.54
2019-05-07T12:17:31.556Z,57.02
2019-05-07T12:18:31.744Z,56.33
2019-05-07T12:19:29.574Z,57.43
2019-05-07T12:20:29.586Z,58.92
2019-05-07T12:21:29.567Z,57.48
2019-05-07T12:22:29.578Z,58.15
2019-05-07T12:23:29.642Z,58.56
2019-05-07T12:24:29.658Z,59.12
2019-05-07T12:25:31.828Z,57.41
2019-05-07T12:26:29.557Z,57.82
2019-05-07T12:27:29.631Z,55.24
2019-05-07T12:28:29.558Z,54.68
2019-05-07T12:29:29.592Z,58.76
2019-05-07T12:30:29.632Z,58.38
2019-05-07T12:31:29.641Z,56.77
2019-05-07T12:32:29.638Z,55.50
2019-05-07T12:33:29.577Z,54.78
2019-05-07T12:34:31.762Z,55.75
2019-05-07T12:35:29.576Z,56.16
2019-05-07T12:36:31.891Z,56.77
2019-05-07T12:37:29.581Z,56.21
2019-05-07T12:38:29.581Z,55.45
2019-05-07T12:39:31.696Z,55.19
2019-05-07T12:40:29.660Z,56.65
2019-05-07T12:41:29.675Z,55.17
2019-05-07T12:42:29.668Z,56.57
2019-05-07T12:43:31.771Z,55.98
2019-05-07T12:44:31.868Z,54.41
2019-05-07T12:45:29.571Z,52.27
2019-05-07T12:46:29.659Z,55.57
2019-05-07T12:47:29.583Z,52.17
2019-05-07T12:48:29.589Z,52.48
2019-05-07T12:49:29.654Z,52.75
2019-05-07T12:50:29.648Z,53.44
2019-05-07T12:51:34.477Z,51.24
2019-05-07T12:52:29.582Z,53.75
2019-05-07T12:53:31.437Z,51.46
2019-05-07T12:54:29.578Z,52.07